Time;durP1;ratioP1;P1;durP2;ratioP2;P2;SDS_P1;SDS_P2;PMS_P1;PMS_P2;Temp;Humidity;BMP_temperature;BMP_pressure;BME280_temperature;BME280_humidity;BME280_pressure;Samples;Min_cycle;Max_cycle;Signal;HPM_P1;HPM_P2
2023/05/13 00:00:18;;;;;;;5.03;4.60;;;13.70;99.90;;;;;;5031342;28;20430;-71
2023/05/13 00:02:43;;;;;;;4.43;4.03;;;13.60;99.90;;;;;;5026579;28;20233;-71
2023/05/13 00:05:09;;;;;;;4.20;3.80;;;13.70;99.90;;;;;;5026365;28;20242;-69
2023/05/13 00:07:35;;;;;;;4.57;4.27;;;13.70;99.90;;;;;;5029066;28;20229;-70
2023/05/13 00:10:01;;;;;;;4.77;4.20;;;13.70;99.90;;;;;;5028666;28;20225;-70
2023/05/13 00:12:26;;;;;;;4.97;4.47;;;13.80;99.90;;;;;;5027480;28;20213;-69
2023/05/13 00:14:52;;;;;;;5.13;4.10;;;13.80;99.90;;;;;;5029844;28;20228;-70
2023/05/13 00:17:17;;;;;;;4.77;4.37;;;13.70;99.90;;;;;;5028435;28;20260;-70
2023/05/13 00:19:43;;;;;;;7.60;4.63;;;13.70;99.90;;;;;;5028561;28;20267;-70
2023/05/13 00:22:09;;;;;;;4.90;4.40;;;13.70;99.90;;;;;;5026316;28;20224;-70
2023/05/13 00:24:35;;;;;;;5.40;4.77;;;13.60;99.90;;;;;;5028325;28;20368;-70
2023/05/13 00:27:00;;;;;;;5.60;4.77;;;13.50;99.90;;;;;;5027933;28;20221;-69
2023/05/13 00:29:26;;;;;;;6.07;4.90;;;13.50;99.90;;;;;;5027028;28;20286;-68
2023/05/13 00:31:51;;;;;;;5.27;4.47;;;13.50;99.90;;;;;;5010300;28;20229;-71
2023/05/13 00:34:18;;;;;;;6.50;5.10;;;13.50;99.90;;;;;;5036680;28;20224;-68
2023/05/13 00:36:44;;;;;;;4.77;4.37;;;13.50;99.90;;;;;;5021434;28;20217;-71
2023/05/13 00:39:10;;;;;;;5.00;4.53;;;13.40;99.90;;;;;;5019754;28;20522;-70
2023/05/13 00:41:36;;;;;;;4.83;4.27;;;13.50;99.90;;;;;;5025976;28;20452;-70
2023/05/13 00:44:02;;;;;;;5.30;4.50;;;13.50;99.90;;;;;;5033333;28;20530;-70
2023/05/13 00:46:32;;;;;;;5.60;4.17;;;13.30;99.90;;;;;;5027211;28;20710;-70
2023/05/13 00:48:58;;;;;;;5.00;4.50;;;13.40;99.90;;;;;;5015478;28;20239;-71
2023/05/13 00:51:25;;;;;;;6.30;4.93;;;13.40;99.90;;;;;;5028691;28;20456;-69
2023/05/13 00:53:51;;;;;;;7.77;4.60;;;13.40;99.90;;;;;;5028171;28;20541;-71
2023/05/13 00:56:23;;;;;;;4.43;4.03;;;13.40;99.90;;;;;;5020160;28;20229;-71
2023/05/13 00:58:49;;;;;;;5.80;4.70;;;13.40;99.90;;;;;;5027673;28;20463;-71
2023/05/13 01:01:45;;;;;;;5.47;4.97;;;13.40;99.90;;;;;;5030134;28;20447;-71
2023/05/13 01:04:23;;;;;;;4.80;4.30;;;13.40;99.90;;;;;;5022611;28;20217;-71
2023/05/13 01:07:18;;;;;;;4.97;4.30;;;13.40;99.90;;;;;;5026368;28;20472;-71
2023/05/13 01:10:02;;;;;;;5.10;4.43;;;13.30;99.90;;;;;;5016715;28;20467;-69
2023/05/13 01:12:50;;;;;;;4.43;4.10;;;13.30;99.90;;;;;;5026972;28;20448;-69
2023/05/13 01:15:23;;;;;;;7.30;5.10;;;13.30;99.90;;;;;;5008593;28;20452;-71
2023/05/13 01:18:14;;;;;;;4.57;4.17;;;13.30;99.90;;;;;;5028434;28;20492;-71
2023/05/13 01:20:41;;;;;;;4.43;4.03;;;13.20;99.90;;;;;;5013333;28;20984;-71
2023/05/13 01:23:11;;;;;;;6.43;4.17;;;13.20;99.90;;;;;;5035716;28;20523;-71
2023/05/13 01:25:38;;;;;;;4.70;4.17;;;13.30;99.90;;;;;;5030916;28;20472;-71
2023/05/13 01:28:05;;;;;;;4.70;4.20;;;13.30;99.90;;;;;;5023221;28;20452;-71
2023/05/13 01:30:35;;;;;;;7.03;4.97;;;13.30;99.90;;;;;;5010479;28;21094;-69
2023/05/13 01:33:04;;;;;;;5.10;4.47;;;13.30;99.90;;;;;;5018520;28;20473;-71
2023/05/13 01:35:30;;;;;;;6.20;4.40;;;13.20;99.90;;;;;;5012276;28;21021;-71
2023/05/13 01:37:57;;;;;;;4.90;4.40;;;13.20;99.90;;;;;;5029706;28;20451;-71
2023/05/13 01:40:24;;;;;;;5.03;4.47;;;13.20;99.90;;;;;;5021937;28;20492;-69
2023/05/13 01:42:50;;;;;;;4.40;4.00;;;13.20;99.90;;;;;;5029685;28;20533;-71
2023/05/13 01:45:15;;;;;;;4.27;3.87;;;13.20;99.90;;;;;;5042536;28;20225;-71
2023/05/13 01:47:41;;;;;;;4.43;4.03;;;13.30;99.90;;;;;;5017221;28;20240;-70
2023/05/13 01:50:07;;;;;;;5.33;4.87;;;13.20;99.90;;;;;;5020461;28;20735;-71
2023/05/13 01:52:34;;;;;;;4.47;4.07;;;13.20;99.90;;;;;;5044143;28;20332;-70
2023/05/13 01:55:00;;;;;;;4.87;4.37;;;13.20;99.90;;;;;;5017440;28;20461;-72
2023/05/13 01:57:26;;;;;;;5.47;4.93;;;13.30;99.90;;;;;;5011317;28;20472;-71
2023/05/13 01:59:52;;;;;;;4.77;4.30;;;13.30;99.90;;;;;;5026191;28;20464;-73
2023/05/13 02:02:18;;;;;;;4.93;4.40;;;13.20;99.90;;;;;;5052124;28;20606;-70
2023/05/13 02:04:43;;;;;;;4.77;4.37;;;13.20;99.90;;;;;;5012537;28;20221;-71
2023/05/13 02:07:09;;;;;;;5.13;4.73;;;13.20;99.90;;;;;;5024839;28;20256;-71
2023/05/13 02:09:35;;;;;;;4.67;4.27;;;13.10;99.90;;;;;;5010409;28;20950;-71
2023/05/13 02:12:00;;;;;;;4.40;4.10;;;13.00;99.90;;;;;;5026829;28;20213;-72
2023/05/13 02:14:27;;;;;;;5.90;4.80;;;13.10;99.90;;;;;;5033668;28;20221;-71
2023/05/13 02:16:53;;;;;;;9.47;4.77;;;13.20;99.90;;;;;;5022488;28;21021;-70
2023/05/13 02:19:20;;;;;;;5.40;4.53;;;13.10;99.90;;;;;;5007949;28;20230;-71
2023/05/13 02:21:47;;;;;;;5.80;4.57;;;13.10;99.90;;;;;;5024434;28;20839;-70
2023/05/13 02:24:13;;;;;;;5.17;4.67;;;13.10;99.90;;;;;;5023639;28;20522;-69
2023/05/13 02:26:40;;;;;;;5.00;4.60;;;13.10;99.90;;;;;;5035055;28;20214;-70
2023/05/13 02:29:06;;;;;;;5.23;4.40;;;13.10;99.90;;;;;;5029833;28;20218;-70
2023/05/13 02:31:32;;;;;;;4.23;3.83;;;13.10;99.90;;;;;;5009564;28;20444;-70
2023/05/13 02:33:58;;;;;;;7.73;4.97;;;13.10;99.90;;;;;;5046378;28;20439;-70
2023/05/13 02:36:24;;;;;;;4.40;4.07;;;13.10;99.90;;;;;;5018795;28;20727;-70
2023/05/13 02:38:50;;;;;;;6.63;4.70;;;13.00;99.90;;;;;;5005237;28;20445;-71
2023/05/13 02:41:16;;;;;;;4.67;4.27;;;13.00;99.90;;;;;;5029422;28;20228;-71
2023/05/13 02:43:41;;;;;;;4.80;4.40;;;13.00;99.90;;;;;;5031398;28;20518;-70
2023/05/13 02:46:07;;;;;;;4.37;3.97;;;13.00;99.90;;;;;;5011370;28;20209;-70
2023/05/13 02:48:33;;;;;;;4.33;4.03;;;13.00;99.90;;;;;;5034586;28;20205;-70
2023/05/13 02:51:00;;;;;;;4.70;4.03;;;12.90;99.90;;;;;;5010214;28;20287;-71
2023/05/13 02:53:26;;;;;;;5.00;4.50;;;12.90;99.90;;;;;;5027009;28;20451;-71
2023/05/13 02:55:55;;;;;;;5.40;4.87;;;13.00;99.90;;;;;;5006469;28;20236;-71
2023/05/13 02:58:24;;;;;;;5.13;4.30;;;12.90;99.90;;;;;;5015628;28;20448;-70
2023/05/13 03:00:50;;;;;;;4.83;4.43;;;13.00;99.90;;;;;;5027998;28;20451;-71
2023/05/13 03:03:15;;;;;;;5.93;4.80;;;13.00;99.90;;;;;;5032304;28;20233;-71
2023/05/13 03:05:41;;;;;;;4.90;4.20;;;13.00;99.90;;;;;;5011724;28;20289;-71
2023/05/13 03:08:06;;;;;;;5.20;4.43;;;13.00;99.90;;;;;;5034691;28;20224;-72
2023/05/13 03:10:32;;;;;;;3.90;3.60;;;12.90;99.90;;;;;;5030618;28;20198;-70
2023/05/13 03:12:58;;;;;;;5.17;4.67;;;12.90;99.90;;;;;;5025637;28;20235;-71
2023/05/13 03:15:23;;;;;;;5.40;4.60;;;13.00;99.90;;;;;;5030155;28;20224;-70
2023/05/13 03:17:49;;;;;;;4.43;4.03;;;13.00;99.90;;;;;;5033883;28;20232;-71
2023/05/13 03:20:16;;;;;;;4.10;3.40;;;12.90;99.90;;;;;;5035973;28;20244;-71
2023/05/13 03:22:42;;;;;;;5.27;4.23;;;13.00;99.90;;;;;;5013025;28;20533;-72
2023/05/13 03:25:08;;;;;;;7.57;4.80;;;12.90;99.90;;;;;;5035493;28;20331;-71
2023/05/13 03:27:40;;;;;;;4.47;4.07;;;12.90;99.90;;;;;;5027749;28;20213;-72
2023/05/13 03:30:07;;;;;;;4.80;4.37;;;12.70;99.90;;;;;;5037396;28;20446;-71
2023/05/13 03:32:40;;;;;;;4.40;3.87;;;12.70;99.90;;;;;;5019434;28;20470;-72
2023/05/13 03:35:06;;;;;;;4.10;3.77;;;12.70;99.90;;;;;;5007350;28;20436;-71
2023/05/13 03:37:32;;;;;;;4.37;3.97;;;12.70;99.90;;;;;;5024498;28;20296;-72
2023/05/13 03:39:57;;;;;;;4.47;4.00;;;12.80;99.90;;;;;;5032784;28;20511;-70
2023/05/13 03:42:25;;;;;;;4.40;3.83;;;12.70;99.90;;;;;;5036825;28;20215;-71
2023/05/13 03:44:52;;;;;;;4.63;4.17;;;12.80;99.90;;;;;;5022028;28;20857;-71
2023/05/13 03:47:17;;;;;;;4.17;3.80;;;12.80;99.90;;;;;;5031331;28;20460;-70
2023/05/13 03:49:46;;;;;;;4.67;4.20;;;12.80;99.90;;;;;;5019702;28;20217;-71
2023/05/13 03:52:13;;;;;;;3.97;3.33;;;12.80;99.90;;;;;;5034208;28;20486;-71
2023/05/13 03:54:39;;;;;;;4.60;4.20;;;12.70;99.90;;;;;;5021924;28;20463;-72
2023/05/13 03:57:07;;;;;;;4.77;3.80;;;12.80;99.90;;;;;;5026224;28;20968;-71
2023/05/13 03:59:33;;;;;;;4.57;4.10;;;12.70;99.90;;;;;;5011756;28;20451;-70
2023/05/13 04:01:58;;;;;;;4.47;3.97;;;12.80;99.90;;;;;;5029556;28;20454;-71
2023/05/13 04:04:24;;;;;;;4.73;4.33;;;12.70;99.90;;;;;;5019962;28;20591;-70
2023/05/13 04:06:50;;;;;;;3.80;3.40;;;12.70;99.90;;;;;;5019249;28;20213;-71
2023/05/13 04:09:15;;;;;;;4.60;4.20;;;12.70;99.90;;;;;;5028618;28;20223;-72
2023/05/13 04:11:41;;;;;;;5.23;3.60;;;12.70;99.90;;;;;;5031668;28;20212;-71
2023/05/13 04:14:07;;;;;;;5.60;3.67;;;12.70;99.90;;;;;;5035952;28;20229;-71
2023/05/13 04:16:32;;;;;;;5.73;4.03;;;12.70;99.90;;;;;;5029651;28;20304;-70
2023/05/13 04:18:58;;;;;;;4.73;4.30;;;12.70;99.90;;;;;;5037745;28;20693;-71
2023/05/13 04:21:24;;;;;;;3.57;3.33;;;12.70;99.90;;;;;;5033235;28;20220;-71
2023/05/13 04:23:49;;;;;;;4.63;4.23;;;12.70;99.90;;;;;;5008435;28;20210;-70
2023/05/13 04:26:16;;;;;;;4.30;3.70;;;12.70;99.90;;;;;;5021730;28;20309;-70
2023/05/13 04:28:41;;;;;;;5.33;4.30;;;12.70;99.90;;;;;;5004997;28;20556;-71
2023/05/13 04:31:07;;;;;;;4.27;3.80;;;12.70;99.90;;;;;;5035880;28;20454;-71
2023/05/13 04:33:35;;;;;;;4.00;3.70;;;12.80;99.90;;;;;;5009720;28;20205;-71
2023/05/13 04:36:01;;;;;;;4.50;4.10;;;12.60;99.90;;;;;;5030295;28;20465;-71
2023/05/13 04:38:27;;;;;;;6.80;4.30;;;12.60;99.90;;;;;;5004536;28;20456;-68
2023/05/13 04:40:53;;;;;;;4.03;3.53;;;12.50;99.90;;;;;;5030490;28;20245;-70
2023/05/13 04:43:26;;;;;;;3.83;3.53;;;12.60;99.90;;;;;;5022379;28;20236;-69
2023/05/13 04:45:55;;;;;;;8.13;4.37;;;12.60;99.90;;;;;;5035998;28;20447;-70
2023/05/13 04:48:21;;;;;;;4.97;3.87;;;12.50;99.90;;;;;;5026443;28;20461;-71
2023/05/13 04:50:47;;;;;;;5.13;4.33;;;12.50;99.90;;;;;;5025251;28;20213;-70
2023/05/13 04:53:13;;;;;;;5.37;3.93;;;12.50;99.90;;;;;;5032151;28;20212;-71
2023/05/13 04:55:39;;;;;;;5.23;3.97;;;12.50;99.90;;;;;;5025896;28;20463;-68
2023/05/13 04:58:05;;;;;;;4.80;4.10;;;12.50;99.90;;;;;;5009598;28;20228;-69
2023/05/13 05:00:31;;;;;;;3.40;3.10;;;12.50;99.90;;;;;;5027631;28;20545;-70
2023/05/13 05:02:57;;;;;;;4.80;3.80;;;12.60;99.90;;;;;;5033874;28;20519;-71
2023/05/13 05:05:24;;;;;;;4.90;4.40;;;12.60;99.90;;;;;;5025342;28;20296;-68
2023/05/13 05:07:50;;;;;;;3.47;3.17;;;12.60;99.90;;;;;;4989996;28;1065521;-70
2023/05/13 05:10:16;;;;;;;6.30;4.37;;;12.60;99.90;;;;;;5024926;28;20221;-71
2023/05/13 05:12:47;;;;;;;4.03;3.63;;;12.60;99.90;;;;;;5013032;28;20210;-70
2023/05/13 05:15:16;;;;;;;5.50;4.70;;;12.60;99.90;;;;;;5016761;28;21068;-70
2023/05/13 05:17:44;;;;;;;3.87;3.57;;;12.60;99.90;;;;;;5018145;28;20301;-70
2023/05/13 05:20:10;;;;;;;3.70;3.40;;;12.60;99.90;;;;;;5014311;28;20472;-71
2023/05/13 05:22:37;;;;;;;5.23;4.73;;;12.60;99.90;;;;;;5025302;28;21048;-70
2023/05/13 05:25:03;;;;;;;5.10;4.60;;;12.60;99.90;;;;;;5001858;28;20448;-71
2023/05/13 05:27:29;;;;;;;4.27;3.40;;;12.60;99.90;;;;;;5027221;28;20464;-68
2023/05/13 05:29:55;;;;;;;6.43;4.73;;;12.70;99.90;;;;;;5029895;28;20443;-70
2023/05/13 05:32:22;;;;;;;5.23;4.10;;;12.70;99.90;;;;;;5027853;28;20221;-68
2023/05/13 05:34:48;;;;;;;4.57;4.17;;;12.70;99.90;;;;;;5021611;28;20453;-70
2023/05/13 05:37:13;;;;;;;3.33;3.03;;;12.70;99.90;;;;;;5027879;28;20467;-70
2023/05/13 05:39:40;;;;;;;4.30;3.90;;;12.70;99.90;;;;;;5024345;28;20217;-71
2023/05/13 05:42:07;;;;;;;4.20;3.60;;;12.70;99.90;;;;;;5031869;28;20824;-70
2023/05/13 05:44:33;;;;;;;4.03;3.63;;;12.70;99.90;;;;;;5019742;28;20857;-70
2023/05/13 05:46:58;;;;;;;5.50;3.90;;;12.70;99.90;;;;;;5032342;28;20456;-72
2023/05/13 05:49:25;;;;;;;7.53;4.27;;;12.80;99.90;;;;;;5025594;28;20675;-71
2023/05/13 05:51:51;;;;;;;3.60;3.30;;;12.80;99.90;;;;;;5047660;28;20501;-71
2023/05/13 05:54:18;;;;;;;4.40;3.80;;;12.80;99.90;;;;;;5028445;28;20459;-70
2023/05/13 05:56:43;;;;;;;5.50;3.83;;;12.80;99.90;;;;;;5036387;28;20471;-70
2023/05/13 05:59:09;;;;;;;3.60;3.30;;;12.90;99.90;;;;;;5044776;28;20291;-72
2023/05/13 06:01:35;;;;;;;3.73;3.43;;;12.90;99.90;;;;;;5041380;28;20274;-71
2023/05/13 06:04:03;;;;;;;4.00;3.70;;;12.90;99.90;;;;;;5036769;28;20456;-71
2023/05/13 06:06:29;;;;;;;4.27;3.93;;;12.90;99.90;;;;;;5039705;28;20513;-70
2023/05/13 06:08:55;;;;;;;3.70;3.40;;;13.00;99.90;;;;;;5035487;28;20444;-71
2023/05/13 06:11:20;;;;;;;10.67;4.60;;;13.00;99.90;;;;;;5018764;28;20237;-71
2023/05/13 06:13:46;;;;;;;5.40;4.00;;;13.10;99.90;;;;;;5028756;28;20263;-71
2023/05/13 06:16:12;;;;;;;3.90;3.60;;;13.00;99.90;;;;;;5021074;28;20872;-71
2023/05/13 06:18:38;;;;;;;3.50;3.20;;;13.10;99.90;;;;;;5038753;28;20219;-70
2023/05/13 06:21:03;;;;;;;5.07;4.60;;;13.20;99.90;;;;;;5007622;28;20217;-71
2023/05/13 06:23:29;;;;;;;5.30;4.10;;;13.20;99.90;;;;;;5011825;28;20274;-71
2023/05/13 06:25:57;;;;;;;4.70;4.20;;;13.30;99.90;;;;;;5010818;28;20232;-71
2023/05/13 06:28:23;;;;;;;4.30;3.90;;;13.30;99.90;;;;;;5033126;28;20236;-71
2023/05/13 06:30:49;;;;;;;6.00;4.30;;;13.30;99.90;;;;;;5035829;28;20460;-71
2023/05/13 06:33:15;;;;;;;5.27;4.23;;;13.40;99.90;;;;;;5031703;28;21007;-71
2023/05/13 06:35:41;;;;;;;6.60;4.67;;;13.40;99.90;;;;;;5019671;28;20680;-70
2023/05/13 06:38:09;;;;;;;4.60;3.50;;;13.50;99.90;;;;;;5009373;28;20230;-71
2023/05/13 06:40:34;;;;;;;4.83;4.37;;;13.50;99.90;;;;;;5014005;28;20444;-69
2023/05/13 06:43:01;;;;;;;3.80;3.47;;;13.50;99.90;;;;;;5038837;28;20443;-71
2023/05/13 06:45:36;;;;;;;5.33;4.13;;;13.60;99.90;;;;;;5022185;28;20497;-71
2023/05/13 06:48:02;;;;;;;4.13;3.73;;;13.60;99.90;;;;;;5004397;28;20444;-70
2023/05/13 06:50:29;;;;;;;3.70;3.40;;;13.70;99.90;;;;;;5025854;28;20564;-71
2023/05/13 06:52:56;;;;;;;5.90;4.20;;;13.70;99.90;;;;;;5017443;28;20527;-71
2023/05/13 06:55:21;;;;;;;4.37;3.97;;;13.70;99.90;;;;;;5010016;28;20233;-70
2023/05/13 06:57:47;;;;;;;4.43;3.70;;;13.80;99.90;;;;;;5015651;28;20515;-71
2023/05/13 07:00:14;;;;;;;4.70;3.90;;;13.80;99.90;;;;;;5027561;28;20232;-70
2023/05/13 07:02:41;;;;;;;4.17;3.73;;;13.90;99.90;;;;;;5017731;28;20309;-70
2023/05/13 07:05:08;;;;;;;4.80;3.73;;;13.90;99.90;;;;;;5031638;28;20451;-71
2023/05/13 07:07:33;;;;;;;5.40;3.93;;;14.00;99.90;;;;;;5020742;28;20546;-71
2023/05/13 07:10:00;;;;;;;6.03;3.83;;;14.10;99.90;;;;;;5026394;28;20602;-70
2023/05/13 07:12:25;;;;;;;4.23;3.60;;;14.10;99.90;;;;;;5027252;28;20228;-71
2023/05/13 07:14:51;;;;;;;5.40;4.57;;;14.10;99.90;;;;;;5026662;28;20986;-71
2023/05/13 07:17:17;;;;;;;4.53;4.10;;;14.20;99.90;;;;;;5030562;28;20482;-70
2023/05/13 07:19:43;;;;;;;4.40;4.10;;;14.20;99.90;;;;;;5021367;28;20217;-72
2023/05/13 07:22:10;;;;;;;5.00;4.50;;;14.20;99.90;;;;;;5014313;28;20221;-71
2023/05/13 07:24:35;;;;;;;3.63;3.33;;;14.30;99.90;;;;;;5019080;28;20485;-72
2023/05/13 07:27:03;;;;;;;4.10;3.80;;;14.30;99.90;;;;;;5016415;28;20468;-71
2023/05/13 07:29:31;;;;;;;3.90;3.60;;;14.40;99.90;;;;;;5009420;28;20682;-70
2023/05/13 07:31:56;;;;;;;5.27;4.77;;;14.50;99.90;;;;;;5031464;28;20449;-70
2023/05/13 07:34:22;;;;;;;4.00;3.70;;;14.60;99.90;;;;;;5029761;28;20481;-70
2023/05/13 07:36:48;;;;;;;3.50;3.20;;;14.60;99.90;;;;;;5027405;28;20299;-72
2023/05/13 07:39:13;;;;;;;4.37;3.87;;;14.60;99.90;;;;;;5028282;28;20624;-71
2023/05/13 07:41:39;;;;;;;4.80;4.40;;;14.70;99.90;;;;;;5034256;28;20213;-71
2023/05/13 07:44:10;;;;;;;5.50;4.70;;;14.80;99.90;;;;;;5006946;28;20750;-72
2023/05/13 07:46:35;;;;;;;4.73;4.30;;;14.80;99.90;;;;;;5026520;28;20221;-72
2023/05/13 07:49:03;;;;;;;4.50;4.00;;;14.90;99.90;;;;;;5020592;28;20501;-70
2023/05/13 07:51:29;;;;;;;5.00;4.03;;;15.00;99.90;;;;;;5045506;28;20216;-71
2023/05/13 07:53:55;;;;;;;4.23;3.83;;;15.00;99.90;;;;;;5022429;28;20445;-70
2023/05/13 07:56:21;;;;;;;6.40;4.50;;;15.10;99.90;;;;;;5001825;28;20447;-72
2023/05/13 07:58:48;;;;;;;3.30;3.00;;;15.10;99.90;;;;;;5015965;28;20208;-70
2023/05/13 08:01:13;;;;;;;4.00;3.60;;;15.10;99.90;;;;;;5009649;28;20803;-70
2023/05/13 08:03:39;;;;;;;3.70;3.40;;;15.20;99.90;;;;;;5001095;28;20518;-71
2023/05/13 08:06:05;;;;;;;3.90;3.57;;;15.30;99.90;;;;;;5039518;28;20590;-71
2023/05/13 08:08:31;;;;;;;3.70;3.37;;;15.40;99.90;;;;;;5042947;28;20224;-71
2023/05/13 08:10:57;;;;;;;4.00;3.70;;;15.50;99.90;;;;;;5031078;28;20440;-71
2023/05/13 08:13:22;;;;;;;4.37;3.97;;;15.60;99.90;;;;;;5025000;28;20234;-71
2023/05/13 08:15:48;;;;;;;5.03;3.90;;;15.60;99.90;;;;;;5045176;28;20226;-72
2023/05/13 08:18:14;;;;;;;4.33;3.93;;;15.70;99.90;;;;;;5026678;28;20342;-71
2023/05/13 08:20:40;;;;;;;4.30;4.00;;;15.70;99.90;;;;;;5036312;28;20705;-72
2023/05/13 08:23:05;;;;;;;4.57;3.87;;;15.70;99.90;;;;;;5042530;28;20447;-72
2023/05/13 08:25:31;;;;;;;6.60;3.57;;;15.60;99.90;;;;;;5046948;28;20722;-71
2023/05/13 08:27:57;;;;;;;4.40;4.00;;;15.80;99.90;;;;;;5038344;28;20829;-72
2023/05/13 08:30:22;;;;;;;7.80;4.00;;;15.90;99.90;;;;;;5036592;28;20316;-72
2023/05/13 08:32:48;;;;;;;4.30;3.90;;;16.00;99.90;;;;;;5053661;28;20209;-71
2023/05/13 08:35:13;;;;;;;4.93;3.57;;;15.90;99.90;;;;;;5034572;28;20223;-72
2023/05/13 08:37:39;;;;;;;4.30;3.83;;;16.00;99.90;;;;;;5024790;28;20726;-71
2023/05/13 08:40:05;;;;;;;5.37;3.70;;;16.20;99.90;;;;;;5026849;28;20599;-70
2023/05/13 08:42:37;;;;;;;4.40;4.00;;;16.20;99.90;;;;;;5010256;28;20221;-72
2023/05/13 08:45:04;;;;;;;3.70;3.40;;;16.40;99.90;;;;;;5042302;28;20451;-70
2023/05/13 08:47:51;;;;;;;3.93;3.63;;;16.40;99.90;;;;;;5030385;28;20459;-72
2023/05/13 08:50:18;;;;;;;4.40;4.00;;;16.50;99.90;;;;;;5046438;28;20919;-69
2023/05/13 08:52:45;;;;;;;4.20;3.90;;;16.50;99.90;;;;;;5031361;28;20982;-72
2023/05/13 08:55:11;;;;;;;3.70;3.40;;;16.60;99.90;;;;;;5035515;28;20451;-71
2023/05/13 08:57:38;;;;;;;4.93;4.53;;;16.80;99.90;;;;;;5012958;28;20472;-70
2023/05/13 09:00:04;;;;;;;7.10;4.30;;;16.70;99.90;;;;;;5022473;28;20463;-71
2023/05/13 09:02:30;;;;;;;3.70;3.40;;;16.70;99.90;;;;;;5031433;28;20463;-72
2023/05/13 09:05:03;;;;;;;3.90;3.50;;;17.00;99.90;;;;;;5033610;28;20870;-72
2023/05/13 09:07:33;;;;;;;5.60;4.33;;;17.20;99.90;;;;;;5025452;28;20299;-70
2023/05/13 09:09:59;;;;;;;4.63;4.27;;;17.40;99.90;;;;;;5031272;28;20962;-71
2023/05/13 09:12:57;;;;;;;3.70;3.40;;;17.40;99.90;;;;;;5021998;28;20473;-69
2023/05/13 09:15:25;;;;;;;3.90;3.60;;;17.60;99.90;;;;;;4971243;28;20307;-68
2023/05/13 09:17:53;;;;;;;3.63;3.33;;;17.70;99.90;;;;;;5022215;28;20511;-70
2023/05/13 09:20:20;;;;;;;3.80;3.50;;;17.70;99.90;;;;;;5018763;28;20457;-71
2023/05/13 09:22:50;;;;;;;4.27;3.87;;;17.80;99.90;;;;;;5003812;28;20471;-72
2023/05/13 09:25:17;;;;;;;3.40;3.10;;;17.80;99.90;;;;;;5024932;28;20949;-70
2023/05/13 09:27:47;;;;;;;4.10;3.60;;;17.70;99.90;;;;;;5020133;28;20551;-71
2023/05/13 09:30:13;;;;;;;3.53;3.23;;;17.80;99.90;;;;;;5025103;28;20461;-72
2023/05/13 09:32:39;;;;;;;4.33;3.73;;;17.80;99.90;;;;;;5020864;28;20880;-72
2023/05/13 09:35:16;;;;;;;4.20;3.80;;;17.90;99.90;;;;;;5024734;28;20510;-71
2023/05/13 09:37:46;;;;;;;4.03;3.73;;;17.90;99.90;;;;;;5010982;28;20475;-71
2023/05/13 09:40:13;;;;;;;4.83;4.37;;;17.80;99.90;;;;;;5032991;28;20479;-71
2023/05/13 09:42:48;;;;;;;3.80;3.50;;;17.90;99.90;;;;;;5026658;28;20749;-72
2023/05/13 09:45:15;;;;;;;5.50;4.10;;;17.90;99.90;;;;;;5001426;28;20464;-72
2023/05/13 09:47:42;;;;;;;6.80;4.90;;;18.00;99.90;;;;;;5019570;28;20471;-71
2023/05/13 09:50:10;;;;;;;4.30;3.90;;;17.80;99.90;;;;;;5034648;28;20486;-71
2023/05/13 09:52:37;;;;;;;4.23;3.77;;;17.90;99.90;;;;;;5017904;28;20468;-70
2023/05/13 09:55:07;;;;;;;5.23;4.67;;;18.10;99.90;;;;;;5036864;28;20464;-70
2023/05/13 09:57:33;;;;;;;4.33;4.03;;;18.10;99.90;;;;;;5016354;28;21317;-71
2023/05/13 10:00:00;;;;;;;4.70;4.30;;;18.30;99.90;;;;;;5023660;28;20534;-71
2023/05/13 10:02:27;;;;;;;4.93;4.30;;;18.40;99.90;;;;;;5032371;28;20221;-71
2023/05/13 10:04:57;;;;;;;5.60;4.20;;;18.40;99.90;;;;;;5019173;28;21015;-70
2023/05/13 10:07:24;;;;;;;5.43;3.97;;;18.60;99.90;;;;;;5034032;28;21015;-71
2023/05/13 10:09:57;;;;;;;4.00;3.60;;;18.80;99.90;;;;;;5037185;28;20455;-71
2023/05/13 10:12:27;;;;;;;4.30;3.93;;;18.90;99.90;;;;;;5025398;28;20870;-72
2023/05/13 10:14:54;;;;;;;4.50;4.10;;;19.00;99.90;;;;;;5023485;28;20484;-71
2023/05/13 10:17:24;;;;;;;3.90;3.60;;;19.10;99.90;;;;;;5018809;28;21008;-69
2023/05/13 10:19:52;;;;;;;3.93;3.63;;;19.30;99.90;;;;;;5034893;28;20467;-72
2023/05/13 10:22:28;;;;;;;4.00;3.67;;;19.50;99.90;;;;;;5013045;28;20452;-70
2023/05/13 10:24:56;;;;;;;4.30;3.90;;;19.80;99.90;;;;;;5022575;28;20476;-72
2023/05/13 10:27:27;;;;;;;5.03;3.97;;;19.80;99.90;;;;;;5023862;28;20501;-72
2023/05/13 10:29:54;;;;;;;4.10;3.80;;;19.60;99.90;;;;;;5027127;28;20464;-72
2023/05/13 10:32:25;;;;;;;5.40;4.40;;;19.50;99.90;;;;;;5026497;28;20464;-73
2023/05/13 10:34:59;;;;;;;5.00;4.60;;;19.60;99.90;;;;;;5014128;28;20506;-72
2023/05/13 10:37:53;;;;;;;4.53;4.23;;;19.50;99.90;;;;;;5027200;28;20485;-73
2023/05/13 10:40:33;;;;;;;4.73;4.13;;;19.70;99.90;;;;;;5028612;28;20444;-73
2023/05/13 10:43:27;;;;;;;4.97;4.47;;;19.80;99.90;;;;;;5026961;28;20482;-72
2023/05/13 10:45:57;;;;;;;4.23;3.80;;;19.80;99.90;;;;;;5030413;28;20827;-72
2023/05/13 10:48:23;;;;;;;5.77;5.23;;;19.80;99.90;;;;;;5024958;28;21035;-72
2023/05/13 10:50:59;;;;;;;5.80;5.30;;;19.60;99.90;;;;;;5026157;28;20467;-71
2023/05/13 10:53:30;;;;;;;4.90;4.37;;;19.70;99.90;;;;;;5009364;28;20455;-72
2023/05/13 10:55:58;;;;;;;4.20;3.80;;;19.90;99.90;;;;;;5037918;28;20471;-72
2023/05/13 10:58:37;;;;;;;4.13;3.73;;;20.00;99.90;;;;;;5031563;28;20520;-72
2023/05/13 11:01:15;;;;;;;4.60;4.17;;;20.10;99.90;;;;;;5004137;28;20476;-72
2023/05/13 11:03:48;;;;;;;5.87;4.13;;;20.20;99.90;;;;;;5020069;28;20821;-70
2023/05/13 11:06:15;;;;;;;4.93;4.13;;;20.00;99.90;;;;;;5029028;28;20457;-71
2023/05/13 11:08:49;;;;;;;4.83;4.43;;;20.20;99.90;;;;;;5033746;28;20466;-72
2023/05/13 11:11:21;;;;;;;5.07;4.40;;;20.20;99.90;;;;;;5018282;28;20448;-72
2023/05/13 11:14:17;;;;;;;11.33;4.70;;;20.20;99.90;;;;;;5022175;28;20881;-70
2023/05/13 11:16:59;;;;;;;5.00;4.50;;;20.20;99.90;;;;;;5035560;28;20610;-72
2023/05/13 11:19:31;;;;;;;5.20;4.70;;;20.30;99.90;;;;;;5027220;28;20483;-71
2023/05/13 11:22:07;;;;;;;4.17;3.87;;;20.60;99.90;;;;;;5029687;28;20557;-72
2023/05/13 11:24:32;;;;;;;5.00;4.13;;;20.90;99.90;;;;;;5013228;28;20461;-72
2023/05/13 11:27:10;;;;;;;4.40;4.10;;;20.90;99.90;;;;;;5014739;28;20534;-73
2023/05/13 11:29:37;;;;;;;5.60;4.73;;;20.80;99.90;;;;;;5031768;28;20217;-72
2023/05/13 11:32:05;;;;;;;4.67;4.27;;;20.50;99.90;;;;;;5022024;28;20462;-70
2023/05/13 11:34:32;;;;;;;5.23;4.57;;;20.60;99.90;;;;;;5027144;28;20550;-72
2023/05/13 11:37:07;;;;;;;4.43;4.13;;;20.60;99.90;;;;;;5033367;28;21088;-72
2023/05/13 11:39:34;;;;;;;4.60;4.20;;;20.70;99.90;;;;;;5040346;28;20549;-71
2023/05/13 11:42:01;;;;;;;5.37;4.63;;;20.50;99.90;;;;;;5040056;28;20519;-72
2023/05/13 11:44:27;;;;;;;4.80;4.40;;;20.60;99.90;;;;;;5038457;28;20569;-72
2023/05/13 11:46:54;;;;;;;5.30;4.90;;;20.60;99.90;;;;;;5029252;28;20452;-72
2023/05/13 11:49:39;;;;;;;6.40;4.87;;;20.70;99.90;;;;;;5035600;28;20463;-72
2023/05/13 11:52:28;;;;;;;5.20;4.67;;;21.00;99.90;;;;;;5030856;28;20504;-71
2023/05/13 11:54:57;;;;;;;4.90;4.50;;;21.20;99.90;;;;;;5032168;28;20524;-72
2023/05/13 11:57:23;;;;;;;4.67;4.23;;;21.30;99.90;;;;;;5035765;28;21005;-72
2023/05/13 11:59:59;;;;;;;4.00;3.60;;;21.30;99.90;;;;;;5026593;28;20460;-72
2023/05/13 12:02:24;;;;;;;5.27;4.87;;;21.40;99.90;;;;;;5035560;28;20462;-71
2023/05/13 12:04:51;;;;;;;4.57;4.27;;;21.30;99.90;;;;;;5037016;28;20530;-72
2023/05/13 12:07:24;;;;;;;4.33;4.03;;;21.20;99.90;;;;;;5022029;28;20245;-74
2023/05/13 12:09:52;;;;;;;5.00;4.60;;;21.20;99.90;;;;;;5038989;28;20473;-71
2023/05/13 12:12:19;;;;;;;4.50;4.17;;;21.30;99.90;;;;;;5024635;28;20454;-73
2023/05/13 12:14:51;;;;;;;4.27;3.93;;;21.30;99.90;;;;;;5048129;28;20466;-72
2023/05/13 12:17:18;;;;;;;4.47;4.17;;;21.30;99.90;;;;;;5033704;28;21043;-72
2023/05/13 12:20:06;;;;;;;4.63;4.23;;;21.30;99.90;;;;;;5022235;28;20973;-72
2023/05/13 12:22:33;;;;;;;6.03;5.43;;;21.10;99.90;;;;;;5031963;28;20448;-72
2023/05/13 12:25:01;;;;;;;5.30;4.80;;;20.80;99.90;;;;;;5025311;28;20473;-72
2023/05/13 12:27:27;;;;;;;5.13;4.63;;;20.70;99.90;;;;;;5024972;28;20459;-72
2023/05/13 12:29:56;;;;;;;4.60;4.30;;;20.70;99.90;;;;;;5026903;28;20555;-72
2023/05/13 12:32:24;;;;;;;5.77;4.33;;;20.80;99.90;;;;;;5028942;28;20308;-72
2023/05/13 12:34:50;;;;;;;3.90;3.60;;;20.70;99.90;;;;;;5030881;28;20462;-72
2023/05/13 12:37:16;;;;;;;3.00;2.80;;;19.70;99.90;;;;;;5035335;28;20468;-72
2023/05/13 12:39:43;;;;;;;2.33;2.20;;;19.10;99.90;;;;;;5032157;28;20460;-71
2023/05/13 12:42:16;;;;;;;3.00;2.80;;;19.10;99.90;;;;;;5025864;28;20509;-72
2023/05/13 12:44:44;;;;;;;2.83;2.63;;;19.20;99.90;;;;;;5027903;28;20460;-71
2023/05/13 12:47:10;;;;;;;2.77;2.57;;;19.30;99.90;;;;;;5022234;28;20452;-73
2023/05/13 12:49:52;;;;;;;3.53;3.07;;;19.30;99.90;;;;;;5025060;28;21164;-72